sensor_id;sensor_type;location;lat;lon;timestamp;pressure;altitude;pressure_sealevel;temperature;humidity
16120;BME280;12670;53.502;10.252;2023-01-31T00:02:10;101268.94;;;4.65;99.80
16120;BME280;12670;53.502;10.252;2023-01-31T00:05:14;101272.28;;;4.82;98.82
16120;BME280;12670;53.502;10.252;2023-01-31T00:08:16;101260.16;;;4.63;98.47
16120;BME280;12670;53.502;10.252;2023-01-31T00:11:22;101269.00;;;4.55;99.99
16120;BME280;12670;53.502;10.252;2023-01-31T00:14:25;101272.47;;;4.61;100.00
16120;BME280;12670;53.502;10.252;2023-01-31T00:17:27;101270.84;;;4.46;100.00
16120;BME280;12670;53.502;10.252;2023-01-31T00:20:31;101272.56;;;4.48;100.00
16120;BME280;12670;53.502;10.252;2023-01-31T00:23:34;101272.50;;;4.54;100.00
16120;BME280;12670;53.502;10.252;2023-01-31T00:26:37;101270.78;;;4.53;100.00
16120;BME280;12670;53.502;10.252;2023-01-31T00:29:40;101260.47;;;4.29;100.00
16120;BME280;12670;53.502;10.252;2023-01-31T00:32:43;101273.53;;;4.34;100.00
16120;BME280;12670;53.502;10.252;2023-01-31T00:35:47;101281.41;;;4.38;100.00
16120;BME280;12670;53.502;10.252;2023-01-31T00:38:50;101282.25;;;4.43;100.00
16120;BME280;12670;53.502;10.252;2023-01-31T00:41:53;101280.41;;;4.54;100.00
16120;BME280;12670;53.502;10.252;2023-01-31T00:44:56;101282.16;;;4.54;100.00
16120;BME280;12670;53.502;10.252;2023-01-31T00:47:58;101288.34;;;4.47;100.00
16120;BME280;12670;53.502;10.252;2023-01-31T00:51:03;101290.78;;;4.71;100.00
16120;BME280;12670;53.502;10.252;2023-01-31T00:54:06;101286.44;;;4.66;100.00
16120;BME280;12670;53.502;10.252;2023-01-31T00:57:08;101289.09;;;4.64;100.00
16120;BME280;12670;53.502;10.252;2023-01-31T01:00:12;101302.41;;;4.38;100.00
16120;BME280;12670;53.502;10.252;2023-01-31T01:03:15;101311.06;;;4.51;100.00
16120;BME280;12670;53.502;10.252;2023-01-31T01:06:19;101307.78;;;4.23;100.00
16120;BME280;12670;53.502;10.252;2023-01-31T01:09:22;101328.06;;;4.01;100.00
16120;BME280;12670;53.502;10.252;2023-01-31T01:12:25;101321.03;;;4.06;100.00
16120;BME280;12670;53.502;10.252;2023-01-31T01:15:28;101311.31;;;4.16;100.00
16120;BME280;12670;53.502;10.252;2023-01-31T01:18:31;101303.53;;;4.02;100.00
16120;BME280;12670;53.502;10.252;2023-01-31T01:21:37;101306.22;;;3.91;100.00
16120;BME280;12670;53.502;10.252;2023-01-31T01:24:41;101307.91;;;3.98;100.00
16120;BME280;12670;53.502;10.252;2023-01-31T01:27:44;101303.53;;;4.05;100.00
16120;BME280;12670;53.502;10.252;2023-01-31T01:30:46;101315.75;;;4.09;100.00
16120;BME280;12670;53.502;10.252;2023-01-31T01:33:49;101315.88;;;3.85;100.00
16120;BME280;12670;53.502;10.252;2023-01-31T01:36:53;101311.44;;;4.00;100.00
16120;BME280;12670;53.502;10.252;2023-01-31T01:39:56;101309.63;;;4.09;100.00
16120;BME280;12670;53.502;10.252;2023-01-31T01:42:58;101312.22;;;4.13;100.00
16120;BME280;12670;53.502;10.252;2023-01-31T01:46:01;101310.44;;;4.15;100.00
16120;BME280;12670;53.502;10.252;2023-01-31T01:49:12;101321.91;;;4.07;100.00
16120;BME280;12670;53.502;10.252;2023-01-31T01:52:22;101314.75;;;4.27;100.00
16120;BME280;12670;53.502;10.252;2023-01-31T01:55:29;101316.59;;;4.10;100.00
16120;BME280;12670;53.502;10.252;2023-01-31T01:58:37;101328.81;;;4.20;100.00
16120;BME280;12670;53.502;10.252;2023-01-31T02:01:42;101329.69;;;4.20;100.00
16120;BME280;12670;53.502;10.252;2023-01-31T02:04:47;101326.06;;;4.38;100.00
16120;BME280;12670;53.502;10.252;2023-01-31T02:07:53;101328.75;;;4.27;100.00
16120;BME280;12670;53.502;10.252;2023-01-31T02:10:59;101335.56;;;4.56;100.00
16120;BME280;12670;53.502;10.252;2023-01-31T02:14:06;101348.00;;;4.34;100.00
16120;BME280;12670;53.502;10.252;2023-01-31T02:17:13;101344.41;;;4.43;100.00
16120;BME280;12670;53.502;10.252;2023-01-31T02:20:28;101354.06;;;4.42;100.00
16120;BME280;12670;53.502;10.252;2023-01-31T02:24:04;101346.31;;;4.24;100.00
16120;BME280;12670;53.502;10.252;2023-01-31T02:27:23;101339.38;;;4.11;100.00
16120;BME280;12670;53.502;10.252;2023-01-31T02:34:25;101332.28;;;4.25;100.00
16120;BME280;12670;53.502;10.252;2023-01-31T02:37:36;101347.91;;;4.43;100.00
16120;BME280;12670;53.502;10.252;2023-01-31T02:40:48;101343.69;;;4.21;100.00
16120;BME280;12670;53.502;10.252;2023-01-31T02:43:55;101350.56;;;4.42;100.00
16120;BME280;12670;53.502;10.252;2023-01-31T02:47:23;101347.88;;;4.52;100.00
16120;BME280;12670;53.502;10.252;2023-01-31T02:50:34;101355.09;;;4.14;100.00
16120;BME280;12670;53.502;10.252;2023-01-31T02:53:43;101357.78;;;4.06;100.00
16120;BME280;12670;53.502;10.252;2023-01-31T02:56:48;101356.84;;;4.15;100.00
16120;BME280;12670;53.502;10.252;2023-01-31T02:59:50;101348.03;;;4.22;100.00
16120;BME280;12670;53.502;10.252;2023-01-31T03:02:53;101355.09;;;4.17;100.00
16120;BME280;12670;53.502;10.252;2023-01-31T03:09:40;101346.28;;;4.27;100.00
16120;BME280;12670;53.502;10.252;2023-01-31T03:12:52;101347.22;;;4.15;100.00
16120;BME280;12670;53.502;10.252;2023-01-31T03:16:06;101340.22;;;4.17;100.00
16120;BME280;12670;53.502;10.252;2023-01-31T03:19:35;101335.84;;;4.15;100.00
16120;BME280;12670;53.502;10.252;2023-01-31T03:22:42;101344.63;;;4.08;100.00
16120;BME280;12670;53.502;10.252;2023-01-31T03:25:47;101327.09;;;4.13;100.00
16120;BME280;12670;53.502;10.252;2023-01-31T03:28:52;101336.75;;;4.09;100.00
16120;BME280;12670;53.502;10.252;2023-01-31T03:31:59;101334.09;;;4.17;100.00
16120;BME280;12670;53.502;10.252;2023-01-31T03:35:07;101324.47;;;4.13;100.00
16120;BME280;12670;53.502;10.252;2023-01-31T03:38:15;101337.56;;;4.16;100.00
16120;BME280;12670;53.502;10.252;2023-01-31T03:41:23;101324.50;;;4.10;100.00
16120;BME280;12670;53.502;10.252;2023-01-31T03:44:36;101320.91;;;4.21;100.00
16120;BME280;12670;53.502;10.252;2023-01-31T03:47:42;101325.44;;;3.96;100.00
16120;BME280;12670;53.502;10.252;2023-01-31T03:50:48;101340.16;;;4.26;100.00
16120;BME280;12670;53.502;10.252;2023-01-31T03:53:57;101334.94;;;4.23;100.00
16120;BME280;12670;53.502;10.252;2023-01-31T03:57:04;101335.75;;;4.27;100.00
16120;BME280;12670;53.502;10.252;2023-01-31T04:00:12;101341.06;;;4.22;100.00
16120;BME280;12670;53.502;10.252;2023-01-31T04:03:21;101348.03;;;4.26;100.00
16120;BME280;12670;53.502;10.252;2023-01-31T04:06:26;101343.56;;;4.38;100.00
16120;BME280;12670;53.502;10.252;2023-01-31T04:09:30;101336.66;;;4.24;100.00
16120;BME280;12670;53.502;10.252;2023-01-31T04:12:34;101344.53;;;4.26;100.00
16120;BME280;12670;53.502;10.252;2023-01-31T04:15:37;101336.59;;;4.34;100.00
16120;BME280;12670;53.502;10.252;2023-01-31T04:18:40;101340.88;;;4.51;100.00
16120;BME280;12670;53.502;10.252;2023-01-31T04:21:42;101334.78;;;4.43;100.00
16120;BME280;12670;53.502;10.252;2023-01-31T04:24:46;101336.44;;;4.55;100.00
16120;BME280;12670;53.502;10.252;2023-01-31T04:27:49;101326.13;;;4.29;100.00
16120;BME280;12670;53.502;10.252;2023-01-31T04:30:53;101327.72;;;4.53;100.00
16120;BME280;12670;53.502;10.252;2023-01-31T04:33:55;101324.06;;;4.71;100.00
16120;BME280;12670;53.502;10.252;2023-01-31T04:36:58;101330.28;;;4.64;100.00
16120;BME280;12670;53.502;10.252;2023-01-31T04:40:03;101319.75;;;4.61;100.00
16120;BME280;12670;53.502;10.252;2023-01-31T04:43:06;101329.38;;;4.65;100.00
16120;BME280;12670;53.502;10.252;2023-01-31T04:46:08;101314.56;;;4.54;100.00
16120;BME280;12670;53.502;10.252;2023-01-31T04:49:11;101311.13;;;4.43;100.00
16120;BME280;12670;53.502;10.252;2023-01-31T04:52:14;101314.53;;;4.59;100.00
16120;BME280;12670;53.502;10.252;2023-01-31T04:55:18;101319.09;;;4.34;100.00
16120;BME280;12670;53.502;10.252;2023-01-31T04:58:21;101312.88;;;4.47;100.00
16120;BME280;12670;53.502;10.252;2023-01-31T05:01:24;101312.09;;;4.32;100.00
16120;BME280;12670;53.502;10.252;2023-01-31T05:04:27;101308.41;;;4.59;100.00
16120;BME280;12670;53.502;10.252;2023-01-31T05:07:30;101307.47;;;4.63;100.00
16120;BME280;12670;53.502;10.252;2023-01-31T05:10:34;101314.56;;;4.58;100.00
16120;BME280;12670;53.502;10.252;2023-01-31T05:13:37;101307.66;;;4.38;100.00
16120;BME280;12670;53.502;10.252;2023-01-31T05:16:40;101327.75;;;4.47;100.00
16120;BME280;12670;53.502;10.252;2023-01-31T05:19:44;101327.84;;;4.32;100.00
16120;BME280;12670;53.502;10.252;2023-01-31T05:22:48;101328.47;;;4.66;100.00
16120;BME280;12670;53.502;10.252;2023-01-31T05:25:53;101315.13;;;4.90;100.00
16120;BME280;12670;53.502;10.252;2023-01-31T05:28:56;101314.38;;;4.77;100.00
16120;BME280;12670;53.502;10.252;2023-01-31T05:32:01;101317.97;;;4.66;100.00
16120;BME280;12670;53.502;10.252;2023-01-31T05:35:05;101307.38;;;4.76;100.00
16120;BME280;12670;53.502;10.252;2023-01-31T05:38:08;101318.69;;;4.83;100.00
16120;BME280;12670;53.502;10.252;2023-01-31T05:41:12;101310.78;;;4.85;100.00
16120;BME280;12670;53.502;10.252;2023-01-31T05:44:15;101306.59;;;4.62;100.00
16120;BME280;12670;53.502;10.252;2023-01-31T05:47:18;101299.50;;;4.73;100.00
16120;BME280;12670;53.502;10.252;2023-01-31T05:50:21;101307.28;;;4.86;100.00
16120;BME280;12670;53.502;10.252;2023-01-31T05:53:23;101291.53;;;4.84;100.00
16120;BME280;12670;53.502;10.252;2023-01-31T05:56:27;101289.81;;;4.81;100.00
16120;BME280;12670;53.502;10.252;2023-01-31T05:59:30;101289.06;;;4.63;100.00
16120;BME280;12670;53.502;10.252;2023-01-31T06:02:33;101286.66;;;4.38;100.00
16120;BME280;12670;53.502;10.252;2023-01-31T06:05:42;101282.97;;;4.61;100.00
16120;BME280;12670;53.502;10.252;2023-01-31T06:08:45;101295.31;;;4.52;100.00
16120;BME280;12670;53.502;10.252;2023-01-31T06:11:49;101282.91;;;4.68;100.00
16120;BME280;12670;53.502;10.252;2023-01-31T06:15:13;101286.50;;;4.57;100.00
16120;BME280;12670;53.502;10.252;2023-01-31T06:18:16;101287.16;;;4.80;100.00
16120;BME280;12670;53.502;10.252;2023-01-31T06:21:18;101287.22;;;4.74;100.00
16120;BME280;12670;53.502;10.252;2023-01-31T06:24:21;101283.78;;;4.70;100.00
16120;BME280;12670;53.502;10.252;2023-01-31T06:27:25;101286.44;;;4.66;100.00
16120;BME280;12670;53.502;10.252;2023-01-31T06:30:28;101278.41;;;4.82;100.00
16120;BME280;12670;53.502;10.252;2023-01-31T06:33:31;101276.63;;;4.85;100.00
16120;BME280;12670;53.502;10.252;2023-01-31T06:36:47;101270.44;;;4.90;100.00
16120;BME280;12670;53.502;10.252;2023-01-31T06:39:50;101272.34;;;4.76;100.00
16120;BME280;12670;53.502;10.252;2023-01-31T06:42:54;101274.03;;;4.81;100.00
16120;BME280;12670;53.502;10.252;2023-01-31T06:45:56;101275.03;;;4.70;100.00
16120;BME280;12670;53.502;10.252;2023-01-31T06:48:59;101262.84;;;4.58;100.00
16120;BME280;12670;53.502;10.252;2023-01-31T06:52:02;101254.03;;;4.65;100.00
16120;BME280;12670;53.502;10.252;2023-01-31T06:55:05;101248.56;;;4.87;100.00
16120;BME280;12670;53.502;10.252;2023-01-31T06:58:09;101240.53;;;4.97;100.00
16120;BME280;12670;53.502;10.252;2023-01-31T07:01:13;101244.19;;;4.87;100.00
16120;BME280;12670;53.502;10.252;2023-01-31T07:04:16;101234.69;;;4.71;100.00
16120;BME280;12670;53.502;10.252;2023-01-31T07:07:19;101239.00;;;4.78;100.00
16120;BME280;12670;53.502;10.252;2023-01-31T07:10:22;101226.84;;;4.68;100.00
16120;BME280;12670;53.502;10.252;2023-01-31T07:13:26;101225.09;;;4.70;100.00
16120;BME280;12670;53.502;10.252;2023-01-31T07:16:29;101209.31;;;4.67;100.00
16120;BME280;12670;53.502;10.252;2023-01-31T07:19:32;101197.72;;;4.88;100.00
16120;BME280;12670;53.502;10.252;2023-01-31T07:22:35;101193.34;;;4.85;100.00
16120;BME280;12670;53.502;10.252;2023-01-31T07:25:37;101189.88;;;4.83;100.00
16120;BME280;12670;53.502;10.252;2023-01-31T07:28:41;101179.38;;;4.80;100.00
16120;BME280;12670;53.502;10.252;2023-01-31T07:31:44;101163.53;;;4.89;100.00
16120;BME280;12670;53.502;10.252;2023-01-31T07:34:47;101149.16;;;5.15;100.00
16120;BME280;12670;53.502;10.252;2023-01-31T07:37:50;101148.59;;;4.93;100.00
16120;BME280;12670;53.502;10.252;2023-01-31T07:40:53;101148.59;;;4.91;100.00
16120;BME280;12670;53.502;10.252;2023-01-31T07:43:58;101148.44;;;5.05;100.00
16120;BME280;12670;53.502;10.252;2023-01-31T07:47:00;101144.28;;;4.87;100.00
16120;BME280;12670;53.502;10.252;2023-01-31T07:50:04;101139.03;;;4.84;100.00
16120;BME280;12670;53.502;10.252;2023-01-31T07:53:06;101127.69;;;4.82;100.00
16120;BME280;12670;53.502;10.252;2023-01-31T07:56:11;101129.53;;;4.75;100.00
16120;BME280;12670;53.502;10.252;2023-01-31T07:59:16;101137.31;;;4.83;100.00
16120;BME280;12670;53.502;10.252;2023-01-31T08:02:18;101131.38;;;4.63;100.00
16120;BME280;12670;53.502;10.252;2023-01-31T08:05:39;101123.41;;;4.75;100.00
16120;BME280;12670;53.502;10.252;2023-01-31T08:08:42;101114.53;;;4.82;100.00
16120;BME280;12670;53.502;10.252;2023-01-31T08:11:45;101111.25;;;4.65;100.00
16120;BME280;12670;53.502;10.252;2023-01-31T08:14:49;101117.38;;;4.65;100.00
16120;BME280;12670;53.502;10.252;2023-01-31T08:17:52;101099.63;;;4.82;100.00
16120;BME280;12670;53.502;10.252;2023-01-31T08:20:55;101091.84;;;4.75;100.00
16120;BME280;12670;53.502;10.252;2023-01-31T08:23:58;101084.75;;;4.81;100.00
16120;BME280;12670;53.502;10.252;2023-01-31T08:27:00;101081.13;;;4.90;100.00
16120;BME280;12670;53.502;10.252;2023-01-31T08:30:06;101076.69;;;4.95;100.00
16120;BME280;12670;53.502;10.252;2023-01-31T08:33:10;101084.53;;;4.97;100.00
16120;BME280;12670;53.502;10.252;2023-01-31T08:36:16;101083.66;;;4.98;100.00
16120;BME280;12670;53.502;10.252;2023-01-31T08:39:19;101082.84;;;4.94;100.00
16120;BME280;12670;53.502;10.252;2023-01-31T08:42:21;101084.47;;;5.01;100.00
16120;BME280;12670;53.502;10.252;2023-01-31T08:45:25;101085.50;;;4.93;100.00
16120;BME280;12670;53.502;10.252;2023-01-31T08:48:31;101077.44;;;5.03;100.00
16120;BME280;12670;53.502;10.252;2023-01-31T08:51:33;101068.09;;;4.82;100.00
16120;BME280;12670;53.502;10.252;2023-01-31T08:54:36;101069.69;;;4.94;100.00
16120;BME280;12670;53.502;10.252;2023-01-31T08:57:38;101063.44;;;5.01;100.00
16120;BME280;12670;53.502;10.252;2023-01-31T09:01:01;101057.13;;;5.16;100.00
16120;BME280;12670;53.502;10.252;2023-01-31T09:04:04;101046.63;;;5.13;100.00
16120;BME280;12670;53.502;10.252;2023-01-31T09:07:07;101039.66;;;5.09;100.00
16120;BME280;12670;53.502;10.252;2023-01-31T09:10:10;101033.25;;;5.27;100.00
16120;BME280;12670;53.502;10.252;2023-01-31T09:13:12;101031.72;;;5.14;100.00
16120;BME280;12670;53.502;10.252;2023-01-31T09:16:17;101022.63;;;5.34;100.00
16120;BME280;12670;53.502;10.252;2023-01-31T09:19:21;101020.00;;;5.33;100.00
16120;BME280;12670;53.502;10.252;2023-01-31T09:22:24;101012.13;;;5.33;100.00
16120;BME280;12670;53.502;10.252;2023-01-31T09:25:26;100997.59;;;5.09;100.00
16120;BME280;12670;53.502;10.252;2023-01-31T09:28:45;100989.56;;;5.18;100.00
16120;BME280;12670;53.502;10.252;2023-01-31T09:31:51;100990.38;;;5.23;100.00
16120;BME280;12670;53.502;10.252;2023-01-31T09:34:54;100982.53;;;5.19;100.00
16120;BME280;12670;53.502;10.252;2023-01-31T09:37:57;100972.88;;;5.19;100.00
16120;BME280;12670;53.502;10.252;2023-01-31T09:41:01;100969.53;;;5.09;100.00
16120;BME280;12670;53.502;10.252;2023-01-31T09:44:06;100967.94;;;4.98;100.00
16120;BME280;12670;53.502;10.252;2023-01-31T09:47:18;100966.13;;;5.03;100.00
16120;BME280;12670;53.502;10.252;2023-01-31T09:50:28;100951.19;;;5.06;100.00
16120;BME280;12670;53.502;10.252;2023-01-31T09:53:35;100937.03;;;5.14;100.00
16120;BME280;12670;53.502;10.252;2023-01-31T09:56:41;100936.34;;;5.02;100.00
16120;BME280;12670;53.502;10.252;2023-01-31T09:59:49;100924.16;;;4.98;100.00
16120;BME280;12670;53.502;10.252;2023-01-31T10:03:24;100928.56;;;4.95;100.00
16120;BME280;12670;53.502;10.252;2023-01-31T10:06:35;100913.69;;;4.92;100.00
16120;BME280;12670;53.502;10.252;2023-01-31T10:09:44;100919.63;;;5.06;100.00
16120;BME280;12670;53.502;10.252;2023-01-31T10:12:49;100906.34;;;5.14;100.00
16120;BME280;12670;53.502;10.252;2023-01-31T10:15:55;100902.69;;;5.23;100.00
16120;BME280;12670;53.502;10.252;2023-01-31T10:19:04;100899.25;;;5.19;100.00
16120;BME280;12670;53.502;10.252;2023-01-31T10:22:11;100889.56;;;5.23;100.00
16120;BME280;12670;53.502;10.252;2023-01-31T10:25:20;100888.66;;;5.24;100.00
16120;BME280;12670;53.502;10.252;2023-01-31T10:28:31;100886.13;;;5.18;100.00
16120;BME280;12670;53.502;10.252;2023-01-31T10:31:40;100894.13;;;5.12;100.00
16120;BME280;12670;53.502;10.252;2023-01-31T10:34:49;100882.78;;;5.08;100.00
16120;BME280;12670;53.502;10.252;2023-01-31T10:37:59;100879.03;;;5.23;100.00
16120;BME280;12670;53.502;10.252;2023-01-31T10:41:10;100863.81;;;5.39;100.00
16120;BME280;12670;53.502;10.252;2023-01-31T10:44:20;100863.81;;;5.39;100.00
16120;BME280;12670;53.502;10.252;2023-01-31T10:47:29;100856.28;;;5.19;100.00
16120;BME280;12670;53.502;10.252;2023-01-31T10:50:40;100854.22;;;5.36;100.00
16120;BME280;12670;53.502;10.252;2023-01-31T10:54:01;100846.34;;;5.36;100.00
16120;BME280;12670;53.502;10.252;2023-01-31T10:57:05;100836.53;;;5.44;100.00
16120;BME280;12670;53.502;10.252;2023-01-31T11:00:13;100826.72;;;5.52;100.00
16120;BME280;12670;53.502;10.252;2023-01-31T11:03:19;100830.31;;;5.48;100.00
16120;BME280;12670;53.502;10.252;2023-01-31T11:06:23;100828.34;;;5.59;100.00
16120;BME280;12670;53.502;10.252;2023-01-31T11:09:28;100810.72;;;5.63;100.00
16120;BME280;12670;53.502;10.252;2023-01-31T11:12:50;100794.41;;;5.44;100.00
16120;BME280;12670;53.502;10.252;2023-01-31T11:15:53;100789.91;;;5.51;100.00
16120;BME280;12670;53.502;10.252;2023-01-31T11:18:58;100810.91;;;5.54;100.00
16120;BME280;12670;53.502;10.252;2023-01-31T11:22:04;100814.03;;;5.73;100.00
16120;BME280;12670;53.502;10.252;2023-01-31T11:25:18;100824.94;;;5.54;100.00
16120;BME280;12670;53.502;10.252;2023-01-31T11:28:24;100814.28;;;5.60;100.00
16120;BME280;12670;53.502;10.252;2023-01-31T11:31:31;100800.09;;;5.69;100.00
16120;BME280;12670;53.502;10.252;2023-01-31T11:34:36;100800.69;;;5.80;100.00
16120;BME280;12670;53.502;10.252;2023-01-31T11:37:49;100797.41;;;5.71;100.00
16120;BME280;12670;53.502;10.252;2023-01-31T11:40:54;100789.28;;;5.81;100.00
16120;BME280;12670;53.502;10.252;2023-01-31T11:44:06;100787.69;;;5.73;100.00
16120;BME280;12670;53.502;10.252;2023-01-31T11:47:11;100783.06;;;5.84;100.00
16120;BME280;12670;53.502;10.252;2023-01-31T11:50:18;100777.13;;;5.74;100.00
16120;BME280;12670;53.502;10.252;2023-01-31T11:53:26;100777.88;;;5.81;100.00
16120;BME280;12670;53.502;10.252;2023-01-31T11:56:33;100773.41;;;5.84;100.00
16120;BME280;12670;53.502;10.252;2023-01-31T11:59:38;100765.50;;;5.84;100.00
16120;BME280;12670;53.502;10.252;2023-01-31T12:02:41;100759.44;;;5.82;100.00
16120;BME280;12670;53.502;10.252;2023-01-31T12:05:47;100761.00;;;5.93;100.00
16120;BME280;12670;53.502;10.252;2023-01-31T12:08:54;100751.31;;;5.93;100.00
16120;BME280;12670;53.502;10.252;2023-01-31T12:11:59;100752.19;;;5.94;100.00
16120;BME280;12670;53.502;10.252;2023-01-31T12:15:12;100738.16;;;5.92;100.00
16120;BME280;12670;53.502;10.252;2023-01-31T12:18:20;100724.81;;;6.01;100.00
16120;BME280;12670;53.502;10.252;2023-01-31T12:21:41;100721.22;;;6.03;100.00
16120;BME280;12670;53.502;10.252;2023-01-31T12:24:58;100710.06;;;5.91;100.00
16120;BME280;12670;53.502;10.252;2023-01-31T12:28:16;100714.28;;;6.01;100.00
16120;BME280;12670;53.502;10.252;2023-01-31T12:31:35;100707.22;;;6.01;100.00
16120;BME280;12670;53.502;10.252;2023-01-31T12:35:07;100718.44;;;6.09;100.00
16120;BME280;12670;53.502;10.252;2023-01-31T12:38:22;100699.41;;;5.98;100.00
16120;BME280;12670;53.502;10.252;2023-01-31T12:41:36;100705.31;;;6.08;100.00
16120;BME280;12670;53.502;10.252;2023-01-31T12:44:43;100706.28;;;6.05;100.00
16120;BME280;12670;53.502;10.252;2023-01-31T12:48:02;100692.09;;;6.09;100.00
16120;BME280;12670;53.502;10.252;2023-01-31T12:51:20;100683.28;;;6.12;100.00
16120;BME280;12670;53.502;10.252;2023-01-31T12:54:40;100681.41;;;6.17;100.00
16120;BME280;12670;53.502;10.252;2023-01-31T12:57:52;100675.94;;;6.25;100.00
16120;BME280;12670;53.502;10.252;2023-01-31T13:01:01;100673.41;;;6.22;100.00
16120;BME280;12670;53.502;10.252;2023-01-31T13:04:22;100668.03;;;6.25;100.00
16120;BME280;12670;53.502;10.252;2023-01-31T13:07:31;100657.34;;;6.31;100.00
16120;BME280;12670;53.502;10.252;2023-01-31T13:10:40;100663.47;;;6.31;100.00
16120;BME280;12670;53.502;10.252;2023-01-31T13:13:48;100667.72;;;6.37;100.00
16120;BME280;12670;53.502;10.252;2023-01-31T13:16:54;100652.88;;;6.34;100.00
16120;BME280;12670;53.502;10.252;2023-01-31T13:20:04;100656.94;;;6.46;100.00
16120;BME280;12670;53.502;10.252;2023-01-31T13:23:12;100641.31;;;6.40;100.00
16120;BME280;12670;53.502;10.252;2023-01-31T13:26:20;100637.59;;;6.47;100.00
16120;BME280;12670;53.502;10.252;2023-01-31T13:29:32;100640.19;;;6.49;100.00
16120;BME280;12670;53.502;10.252;2023-01-31T13:32:37;100660.56;;;6.42;100.00
16120;BME280;12670;53.502;10.252;2023-01-31T13:35:43;100653.41;;;6.47;100.00
16120;BME280;12670;53.502;10.252;2023-01-31T13:38:46;100661.25;;;6.49;100.00
16120;BME280;12670;53.502;10.252;2023-01-31T13:41:49;100665.34;;;6.60;100.00
16120;BME280;12670;53.502;10.252;2023-01-31T13:44:54;100659.16;;;6.63;100.00
16120;BME280;12670;53.502;10.252;2023-01-31T13:48:00;100644.19;;;6.63;100.00
16120;BME280;12670;53.502;10.252;2023-01-31T13:51:08;100643.84;;;6.76;100.00
16120;BME280;12670;53.502;10.252;2023-01-31T13:54:19;100640.41;;;6.72;100.00
16120;BME280;12670;53.502;10.252;2023-01-31T13:57:25;100644.72;;;6.76;100.00
16120;BME280;12670;53.502;10.252;2023-01-31T14:00:37;100630.63;;;6.77;100.00
16120;BME280;12670;53.502;10.252;2023-01-31T14:04:21;100622.75;;;6.76;100.00
16120;BME280;12670;53.502;10.252;2023-01-31T14:07:24;100611.00;;;6.87;100.00
16120;BME280;12670;53.502;10.252;2023-01-31T14:10:35;100599.41;;;6.93;100.00
16120;BME280;12670;53.502;10.252;2023-01-31T14:13:41;100611.81;;;6.89;100.00
16120;BME280;12670;53.502;10.252;2023-01-31T14:16:46;100617.03;;;6.91;100.00
16120;BME280;12670;53.502;10.252;2023-01-31T14:20:05;100610.81;;;6.93;100.00
16120;BME280;12670;53.502;10.252;2023-01-31T14:23:28;100607.91;;;7.03;100.00
16120;BME280;12670;53.502;10.252;2023-01-31T14:26:33;100597.50;;;6.98;100.00
16120;BME280;12670;53.502;10.252;2023-01-31T14:29:41;100606.13;;;7.03;100.00
16120;BME280;12670;53.502;10.252;2023-01-31T14:32:47;100609.50;;;7.08;100.00
16120;BME280;12670;53.502;10.252;2023-01-31T14:36:03;100620.28;;;7.01;100.00
16120;BME280;12670;53.502;10.252;2023-01-31T14:39:21;100630.19;;;6.92;100.00
16120;BME280;12670;53.502;10.252;2023-01-31T14:42:37;100612.19;;;7.07;100.00
16120;BME280;12670;53.502;10.252;2023-01-31T14:46:03;100623.72;;;7.04;100.00
16120;BME280;12670;53.502;10.252;2023-01-31T14:49:20;100603.59;;;7.00;100.00
16120;BME280;12670;53.502;10.252;2023-01-31T14:52:41;100593.97;;;6.99;100.00
16120;BME280;12670;53.502;10.252;2023-01-31T14:56:16;100592.59;;;7.15;100.00
16120;BME280;12670;53.502;10.252;2023-01-31T14:59:31;100603.66;;;6.99;100.00
16120;BME280;12670;53.502;10.252;2023-01-31T15:02:46;100599.41;;;6.93;100.00
16120;BME280;12670;53.502;10.252;2023-01-31T15:05:52;100604.50;;;6.99;100.00
16120;BME280;12670;53.502;10.252;2023-01-31T15:09:18;100615.22;;;6.93;100.00
16120;BME280;12670;53.502;10.252;2023-01-31T15:12:53;100609.09;;;6.92;100.00
16120;BME280;12670;53.502;10.252;2023-01-31T15:15:56;100608.19;;;6.93;100.00
16120;BME280;12670;53.502;10.252;2023-01-31T15:19:05;100609.41;;;6.82;100.00
16120;BME280;12670;53.502;10.252;2023-01-31T15:22:11;100602.13;;;6.90;100.00
16120;BME280;12670;53.502;10.252;2023-01-31T15:25:22;100605.72;;;6.87;100.00
16120;BME280;12670;53.502;10.252;2023-01-31T15:28:27;100603.91;;;6.89;100.00
16120;BME280;12670;53.502;10.252;2023-01-31T15:31:39;100606.31;;;6.97;100.00
16120;BME280;12670;53.502;10.252;2023-01-31T15:34:48;100579.72;;;6.74;100.00
16120;BME280;12670;53.502;10.252;2023-01-31T15:38:00;100619.09;;;6.81;100.00
16120;BME280;12670;53.502;10.252;2023-01-31T15:41:16;100623.31;;;6.87;100.00
16120;BME280;12670;53.502;10.252;2023-01-31T15:44:21;100637.38;;;6.86;100.00
16120;BME280;12670;53.502;10.252;2023-01-31T15:47:24;100620.63;;;6.88;100.00
16120;BME280;12670;53.502;10.252;2023-01-31T15:50:28;100620.53;;;6.91;100.00
16120;BME280;12670;53.502;10.252;2023-01-31T15:53:33;100622.22;;;6.94;100.00
16120;BME280;12670;53.502;10.252;2023-01-31T15:56:38;100626.72;;;6.90;100.00
16120;BME280;12670;53.502;10.252;2023-01-31T15:59:43;100632.84;;;6.91;100.00
16120;BME280;12670;53.502;10.252;2023-01-31T16:02:47;100637.03;;;7.00;100.00
16120;BME280;12670;53.502;10.252;2023-01-31T16:05:51;100645.84;;;6.99;100.00
16120;BME280;12670;53.502;10.252;2023-01-31T16:08:57;100630.88;;;6.99;100.00
16120;BME280;12670;53.502;10.252;2023-01-31T16:12:02;100630.88;;;6.99;100.00
16120;BME280;12670;53.502;10.252;2023-01-31T16:15:06;100628.13;;;7.02;100.00